sensor_id;sensor_type;location;lat;lon;timestamp;P1;durP1;ratioP1;P2;durP2;ratioP2
11675;SDS011;5894;42.768;23.404;2023-09-12T00:00:41;5.60;;;2.90;;
11675;SDS011;5894;42.768;23.404;2023-09-12T00:03:09;4.93;;;3.00;;
11675;SDS011;5894;42.768;23.404;2023-09-12T00:05:36;6.07;;;2.90;;
11675;SDS011;5894;42.768;23.404;2023-09-12T00:08:03;4.55;;;2.95;;
11675;SDS011;5894;42.768;23.404;2023-09-12T00:10:32;4.40;;;2.70;;
11675;SDS011;5894;42.768;23.404;2023-09-12T00:12:59;4.47;;;3.25;;
11675;SDS011;5894;42.768;23.404;2023-09-12T00:15:27;4.88;;;2.97;;
11675;SDS011;5894;42.768;23.404;2023-09-12T00:17:54;8.07;;;3.20;;
11675;SDS011;5894;42.768;23.404;2023-09-12T00:20:21;7.25;;;2.83;;
11675;SDS011;5894;42.768;23.404;2023-09-12T00:22:48;4.28;;;2.92;;
11675;SDS011;5894;42.768;23.404;2023-09-12T00:25:15;4.78;;;3.00;;
11675;SDS011;5894;42.768;23.404;2023-09-12T00:27:44;5.13;;;2.92;;
11675;SDS011;5894;42.768;23.404;2023-09-12T00:30:11;6.00;;;2.92;;
11675;SDS011;5894;42.768;23.404;2023-09-12T00:32:40;8.43;;;3.13;;
11675;SDS011;5894;42.768;23.404;2023-09-12T00:35:07;5.95;;;2.80;;
11675;SDS011;5894;42.768;23.404;2023-09-12T00:37:34;5.07;;;2.67;;
11675;SDS011;5894;42.768;23.404;2023-09-12T00:40:01;7.68;;;3.13;;
11675;SDS011;5894;42.768;23.404;2023-09-12T00:42:28;7.97;;;3.33;;
11675;SDS011;5894;42.768;23.404;2023-09-12T00:44:57;4.35;;;3.17;;
11675;SDS011;5894;42.768;23.404;2023-09-12T00:47:23;6.07;;;3.00;;
11675;SDS011;5894;42.768;23.404;2023-09-12T00:49:52;4.28;;;2.83;;
11675;SDS011;5894;42.768;23.404;2023-09-12T00:52:20;4.85;;;3.00;;
11675;SDS011;5894;42.768;23.404;2023-09-12T00:54:49;4.95;;;2.88;;
11675;SDS011;5894;42.768;23.404;2023-09-12T00:57:17;4.40;;;3.10;;
11675;SDS011;5894;42.768;23.404;2023-09-12T00:59:44;5.80;;;2.67;;
11675;SDS011;5894;42.768;23.404;2023-09-12T01:02:12;4.13;;;2.83;;
11675;SDS011;5894;42.768;23.404;2023-09-12T01:04:39;4.78;;;3.08;;
11675;SDS011;5894;42.768;23.404;2023-09-12T01:07:08;5.93;;;3.20;;
11675;SDS011;5894;42.768;23.404;2023-09-12T01:09:35;9.07;;;2.90;;
11675;SDS011;5894;42.768;23.404;2023-09-12T01:12:03;4.43;;;2.97;;
11675;SDS011;5894;42.768;23.404;2023-09-12T01:14:31;7.45;;;3.00;;
11675;SDS011;5894;42.768;23.404;2023-09-12T01:16:58;4.18;;;2.65;;
11675;SDS011;5894;42.768;23.404;2023-09-12T01:19:27;4.55;;;3.00;;
11675;SDS011;5894;42.768;23.404;2023-09-12T01:21:59;4.95;;;3.00;;
11675;SDS011;5894;42.768;23.404;2023-09-12T01:27:48;4.45;;;2.80;;
11675;SDS011;5894;42.768;23.404;2023-09-12T01:30:18;4.00;;;2.65;;
11675;SDS011;5894;42.768;23.404;2023-09-12T01:32:47;2.60;;;2.33;;
11675;SDS011;5894;42.768;23.404;2023-09-12T01:35:15;4.45;;;2.90;;
11675;SDS011;5894;42.768;23.404;2023-09-12T01:37:42;3.95;;;2.85;;
11675;SDS011;5894;42.768;23.404;2023-09-12T01:40:09;5.63;;;2.95;;
11675;SDS011;5894;42.768;23.404;2023-09-12T01:42:37;4.97;;;3.30;;
11675;SDS011;5894;42.768;23.404;2023-09-12T01:45:09;3.95;;;2.60;;
11675;SDS011;5894;42.768;23.404;2023-09-12T01:47:38;3.78;;;2.65;;
11675;SDS011;5894;42.768;23.404;2023-09-12T01:50:08;3.92;;;2.92;;
11675;SDS011;5894;42.768;23.404;2023-09-12T01:52:38;4.47;;;3.05;;
11675;SDS011;5894;42.768;23.404;2023-09-12T01:55:08;5.55;;;3.00;;
11675;SDS011;5894;42.768;23.404;2023-09-12T01:57:35;4.15;;;2.80;;
11675;SDS011;5894;42.768;23.404;2023-09-12T02:00:03;4.13;;;2.60;;
11675;SDS011;5894;42.768;23.404;2023-09-12T02:02:32;4.50;;;3.13;;
11675;SDS011;5894;42.768;23.404;2023-09-12T02:05:03;4.15;;;2.97;;
11675;SDS011;5894;42.768;23.404;2023-09-12T02:07:36;3.13;;;2.80;;
11675;SDS011;5894;42.768;23.404;2023-09-12T02:10:05;5.38;;;2.92;;
11675;SDS011;5894;42.768;23.404;2023-09-12T02:12:33;5.03;;;2.92;;
11675;SDS011;5894;42.768;23.404;2023-09-12T02:15:00;4.13;;;2.75;;
11675;SDS011;5894;42.768;23.404;2023-09-12T02:17:27;4.75;;;3.17;;
11675;SDS011;5894;42.768;23.404;2023-09-12T02:19:55;5.15;;;3.00;;
11675;SDS011;5894;42.768;23.404;2023-09-12T02:22:22;5.32;;;3.10;;
11675;SDS011;5894;42.768;23.404;2023-09-12T02:24:50;3.25;;;2.75;;
11675;SDS011;5894;42.768;23.404;2023-09-12T02:27:17;7.75;;;3.10;;
11675;SDS011;5894;42.768;23.404;2023-09-12T02:29:44;3.40;;;3.10;;
11675;SDS011;5894;42.768;23.404;2023-09-12T02:32:11;5.50;;;2.65;;
11675;SDS011;5894;42.768;23.404;2023-09-12T02:34:38;3.45;;;2.90;;
11675;SDS011;5894;42.768;23.404;2023-09-12T02:37:06;4.63;;;3.03;;
11675;SDS011;5894;42.768;23.404;2023-09-12T02:39:33;4.40;;;2.83;;
11675;SDS011;5894;42.768;23.404;2023-09-12T02:42:00;4.75;;;2.85;;
11675;SDS011;5894;42.768;23.404;2023-09-12T02:44:27;4.65;;;2.83;;
11675;SDS011;5894;42.768;23.404;2023-09-12T02:46:54;4.55;;;3.00;;
11675;SDS011;5894;42.768;23.404;2023-09-12T02:49:21;4.72;;;2.97;;
11675;SDS011;5894;42.768;23.404;2023-09-12T02:51:48;8.98;;;3.22;;
11675;SDS011;5894;42.768;23.404;2023-09-12T02:54:17;6.05;;;2.75;;
11675;SDS011;5894;42.768;23.404;2023-09-12T02:56:44;6.68;;;3.13;;
11675;SDS011;5894;42.768;23.404;2023-09-12T02:59:11;4.55;;;3.05;;
11675;SDS011;5894;42.768;23.404;2023-09-12T03:01:38;6.95;;;3.65;;
11675;SDS011;5894;42.768;23.404;2023-09-12T03:04:06;6.00;;;3.20;;
11675;SDS011;5894;42.768;23.404;2023-09-12T03:06:33;5.47;;;2.80;;
11675;SDS011;5894;42.768;23.404;2023-09-12T03:09:01;4.47;;;2.90;;
11675;SDS011;5894;42.768;23.404;2023-09-12T03:11:31;4.25;;;3.20;;
11675;SDS011;5894;42.768;23.404;2023-09-12T03:13:58;6.28;;;3.15;;
11675;SDS011;5894;42.768;23.404;2023-09-12T03:16:25;4.85;;;3.00;;
11675;SDS011;5894;42.768;23.404;2023-09-12T03:18:52;7.22;;;3.33;;
11675;SDS011;5894;42.768;23.404;2023-09-12T03:21:19;7.00;;;3.20;;
11675;SDS011;5894;42.768;23.404;2023-09-12T03:23:46;5.93;;;3.10;;
11675;SDS011;5894;42.768;23.404;2023-09-12T03:26:13;3.22;;;2.92;;
11675;SDS011;5894;42.768;23.404;2023-09-12T03:28:42;5.95;;;3.20;;
11675;SDS011;5894;42.768;23.404;2023-09-12T03:31:10;5.40;;;3.40;;
11675;SDS011;5894;42.768;23.404;2023-09-12T03:33:38;4.53;;;2.90;;
11675;SDS011;5894;42.768;23.404;2023-09-12T03:36:06;3.75;;;3.08;;
11675;SDS011;5894;42.768;23.404;2023-09-12T03:38:34;8.65;;;3.65;;
11675;SDS011;5894;42.768;23.404;2023-09-12T03:41:01;5.35;;;3.28;;
11675;SDS011;5894;42.768;23.404;2023-09-12T03:43:29;4.43;;;3.38;;
11675;SDS011;5894;42.768;23.404;2023-09-12T03:45:59;8.85;;;3.17;;
11675;SDS011;5894;42.768;23.404;2023-09-12T03:48:26;6.22;;;3.60;;
11675;SDS011;5894;42.768;23.404;2023-09-12T03:50:55;8.57;;;3.13;;
11675;SDS011;5894;42.768;23.404;2023-09-12T03:53:22;4.93;;;3.15;;
11675;SDS011;5894;42.768;23.404;2023-09-12T03:55:51;5.05;;;3.10;;
11675;SDS011;5894;42.768;23.404;2023-09-12T03:58:18;6.07;;;3.50;;
11675;SDS011;5894;42.768;23.404;2023-09-12T04:00:45;5.95;;;3.33;;
11675;SDS011;5894;42.768;23.404;2023-09-12T04:03:14;3.72;;;3.00;;
11675;SDS011;5894;42.768;23.404;2023-09-12T04:05:41;4.72;;;3.13;;
11675;SDS011;5894;42.768;23.404;2023-09-12T04:08:08;4.63;;;3.10;;
11675;SDS011;5894;42.768;23.404;2023-09-12T04:10:35;4.93;;;3.15;;
11675;SDS011;5894;42.768;23.404;2023-09-12T04:13:02;7.53;;;3.20;;
11675;SDS011;5894;42.768;23.404;2023-09-12T04:15:29;6.47;;;3.35;;
11675;SDS011;5894;42.768;23.404;2023-09-12T04:17:56;6.38;;;3.22;;
11675;SDS011;5894;42.768;23.404;2023-09-12T04:20:25;5.57;;;3.00;;
11675;SDS011;5894;42.768;23.404;2023-09-12T04:22:52;4.90;;;3.03;;
11675;SDS011;5894;42.768;23.404;2023-09-12T04:25:19;6.20;;;3.42;;
11675;SDS011;5894;42.768;23.404;2023-09-12T04:27:46;5.03;;;3.20;;
11675;SDS011;5894;42.768;23.404;2023-09-12T04:30:13;5.80;;;3.35;;
11675;SDS011;5894;42.768;23.404;2023-09-12T04:32:40;3.92;;;3.25;;
11675;SDS011;5894;42.768;23.404;2023-09-12T04:35:07;5.25;;;3.40;;
11675;SDS011;5894;42.768;23.404;2023-09-12T04:37:36;4.60;;;3.17;;
11675;SDS011;5894;42.768;23.404;2023-09-12T04:40:04;4.60;;;2.83;;
11675;SDS011;5894;42.768;23.404;2023-09-12T04:42:32;7.53;;;3.35;;
11675;SDS011;5894;42.768;23.404;2023-09-12T04:44:59;9.82;;;3.38;;
11675;SDS011;5894;42.768;23.404;2023-09-12T04:47:26;12.55;;;3.88;;
11675;SDS011;5894;42.768;23.404;2023-09-12T04:49:53;6.97;;;3.25;;
11675;SDS011;5894;42.768;23.404;2023-09-12T04:52:20;7.18;;;3.30;;
11675;SDS011;5894;42.768;23.404;2023-09-12T04:54:48;7.22;;;3.13;;
11675;SDS011;5894;42.768;23.404;2023-09-12T04:57:15;5.05;;;3.00;;
11675;SDS011;5894;42.768;23.404;2023-09-12T04:59:42;5.57;;;3.03;;
11675;SDS011;5894;42.768;23.404;2023-09-12T05:02:09;4.63;;;2.85;;
11675;SDS011;5894;42.768;23.404;2023-09-12T05:04:36;8.45;;;3.38;;
11675;SDS011;5894;42.768;23.404;2023-09-12T05:07:03;5.93;;;3.15;;
11675;SDS011;5894;42.768;23.404;2023-09-12T05:09:30;7.72;;;3.35;;
11675;SDS011;5894;42.768;23.404;2023-09-12T05:11:58;5.15;;;3.10;;
11675;SDS011;5894;42.768;23.404;2023-09-12T05:14:26;6.30;;;3.42;;
11675;SDS011;5894;42.768;23.404;2023-09-12T05:16:52;6.57;;;3.30;;
11675;SDS011;5894;42.768;23.404;2023-09-12T05:19:19;4.75;;;3.50;;
11675;SDS011;5894;42.768;23.404;2023-09-12T05:21:46;6.05;;;3.40;;
11675;SDS011;5894;42.768;23.404;2023-09-12T05:24:13;3.70;;;2.88;;
11675;SDS011;5894;42.768;23.404;2023-09-12T05:26:41;5.47;;;3.58;;
11675;SDS011;5894;42.768;23.404;2023-09-12T05:29:09;6.32;;;4.00;;
11675;SDS011;5894;42.768;23.404;2023-09-12T05:31:36;5.20;;;3.47;;
11675;SDS011;5894;42.768;23.404;2023-09-12T05:34:03;8.68;;;3.78;;
11675;SDS011;5894;42.768;23.404;2023-09-12T05:36:30;7.00;;;3.53;;
11675;SDS011;5894;42.768;23.404;2023-09-12T05:38:57;6.18;;;2.95;;
11675;SDS011;5894;42.768;23.404;2023-09-12T05:41:24;7.03;;;3.53;;
11675;SDS011;5894;42.768;23.404;2023-09-12T05:43:51;7.05;;;3.42;;
11675;SDS011;5894;42.768;23.404;2023-09-12T05:46:20;6.88;;;3.92;;
11675;SDS011;5894;42.768;23.404;2023-09-12T05:48:47;10.15;;;4.47;;
11675;SDS011;5894;42.768;23.404;2023-09-12T05:51:14;8.40;;;3.88;;
11675;SDS011;5894;42.768;23.404;2023-09-12T05:53:41;9.63;;;3.88;;
11675;SDS011;5894;42.768;23.404;2023-09-12T05:56:08;8.45;;;3.45;;
11675;SDS011;5894;42.768;23.404;2023-09-12T05:58:35;7.15;;;3.60;;
11675;SDS011;5894;42.768;23.404;2023-09-12T06:01:07;8.65;;;3.72;;
11675;SDS011;5894;42.768;23.404;2023-09-12T06:03:35;7.75;;;3.13;;
11675;SDS011;5894;42.768;23.404;2023-09-12T06:06:02;6.82;;;2.88;;
11675;SDS011;5894;42.768;23.404;2023-09-12T06:08:30;6.30;;;3.00;;
11675;SDS011;5894;42.768;23.404;2023-09-12T06:10:57;5.82;;;2.85;;
11675;SDS011;5894;42.768;23.404;2023-09-12T06:13:24;5.50;;;2.70;;
11675;SDS011;5894;42.768;23.404;2023-09-12T06:15:51;5.25;;;3.20;;
11675;SDS011;5894;42.768;23.404;2023-09-12T06:18:18;5.88;;;3.28;;
11675;SDS011;5894;42.768;23.404;2023-09-12T06:20:46;10.70;;;3.28;;
11675;SDS011;5894;42.768;23.404;2023-09-12T06:23:13;8.45;;;3.40;;
11675;SDS011;5894;42.768;23.404;2023-09-12T06:25:40;5.13;;;3.10;;
11675;SDS011;5894;42.768;23.404;2023-09-12T06:28:08;5.57;;;3.28;;
11675;SDS011;5894;42.768;23.404;2023-09-12T06:30:36;7.60;;;3.58;;
11675;SDS011;5894;42.768;23.404;2023-09-12T06:33:03;4.80;;;2.80;;
11675;SDS011;5894;42.768;23.404;2023-09-12T06:35:31;11.93;;;3.00;;
11675;SDS011;5894;42.768;23.404;2023-09-12T06:38:00;6.05;;;3.05;;
11675;SDS011;5894;42.768;23.404;2023-09-12T06:40:27;4.25;;;2.88;;
11675;SDS011;5894;42.768;23.404;2023-09-12T06:42:54;9.82;;;3.05;;
11675;SDS011;5894;42.768;23.404;2023-09-12T06:45:21;7.35;;;2.50;;
11675;SDS011;5894;42.768;23.404;2023-09-12T06:47:48;4.03;;;2.60;;
11675;SDS011;5894;42.768;23.404;2023-09-12T06:50:15;5.18;;;2.40;;
11675;SDS011;5894;42.768;23.404;2023-09-12T06:52:42;8.73;;;2.63;;
11675;SDS011;5894;42.768;23.404;2023-09-12T06:55:11;3.80;;;2.45;;
11675;SDS011;5894;42.768;23.404;2023-09-12T06:57:38;4.95;;;2.10;;
11675;SDS011;5894;42.768;23.404;2023-09-12T07:00:06;7.03;;;2.38;;
11675;SDS011;5894;42.768;23.404;2023-09-12T07:02:34;6.15;;;2.67;;
11675;SDS011;5894;42.768;23.404;2023-09-12T07:05:01;3.25;;;2.55;;
11675;SDS011;5894;42.768;23.404;2023-09-12T07:07:29;3.75;;;2.85;;
11675;SDS011;5894;42.768;23.404;2023-09-12T07:09:56;3.45;;;2.35;;
11675;SDS011;5894;42.768;23.404;2023-09-12T07:12:24;3.15;;;2.30;;
11675;SDS011;5894;42.768;23.404;2023-09-12T07:14:51;3.45;;;2.20;;
11675;SDS011;5894;42.768;23.404;2023-09-12T07:17:18;4.65;;;2.17;;
11675;SDS011;5894;42.768;23.404;2023-09-12T07:19:45;4.13;;;2.30;;
11675;SDS011;5894;42.768;23.404;2023-09-12T07:22:12;5.68;;;3.40;;
11675;SDS011;5894;42.768;23.404;2023-09-12T07:24:39;3.53;;;2.63;;
11675;SDS011;5894;42.768;23.404;2023-09-12T07:27:06;2.90;;;2.25;;
11675;SDS011;5894;42.768;23.404;2023-09-12T07:29:34;4.10;;;2.40;;
11675;SDS011;5894;42.768;23.404;2023-09-12T07:32:02;4.90;;;2.28;;
11675;SDS011;5894;42.768;23.404;2023-09-12T07:34:29;6.93;;;2.25;;
11675;SDS011;5894;42.768;23.404;2023-09-12T07:36:56;6.20;;;2.40;;
11675;SDS011;5894;42.768;23.404;2023-09-12T07:39:23;6.57;;;2.00;;
11675;SDS011;5894;42.768;23.404;2023-09-12T07:41:50;3.25;;;1.70;;
11675;SDS011;5894;42.768;23.404;2023-09-12T07:44:17;2.30;;;1.95;;
11675;SDS011;5894;42.768;23.404;2023-09-12T07:46:46;4.07;;;2.10;;
11675;SDS011;5894;42.768;23.404;2023-09-12T07:49:13;5.43;;;1.98;;
11675;SDS011;5894;42.768;23.404;2023-09-12T07:51:41;5.78;;;2.00;;
11675;SDS011;5894;42.768;23.404;2023-09-12T07:54:08;3.05;;;2.10;;
11675;SDS011;5894;42.768;23.404;2023-09-12T07:56:35;7.55;;;2.17;;
11675;SDS011;5894;42.768;23.404;2023-09-12T07:59:02;9.63;;;2.50;;
11675;SDS011;5894;42.768;23.404;2023-09-12T08:01:29;9.20;;;2.40;;
11675;SDS011;5894;42.768;23.404;2023-09-12T08:03:58;14.38;;;2.95;;
11675;SDS011;5894;42.768;23.404;2023-09-12T08:06:25;10.52;;;2.83;;
11675;SDS011;5894;42.768;23.404;2023-09-12T08:08:52;11.60;;;2.30;;
11675;SDS011;5894;42.768;23.404;2023-09-12T08:11:19;9.13;;;2.50;;
11675;SDS011;5894;42.768;23.404;2023-09-12T08:13:48;11.52;;;2.33;;
11675;SDS011;5894;42.768;23.404;2023-09-12T08:16:16;5.25;;;1.90;;
11675;SDS011;5894;42.768;23.404;2023-09-12T08:18:43;5.13;;;1.88;;
11675;SDS011;5894;42.768;23.404;2023-09-12T08:21:11;8.30;;;2.30;;
11675;SDS011;5894;42.768;23.404;2023-09-12T08:23:38;6.30;;;2.30;;
11675;SDS011;5894;42.768;23.404;2023-09-12T08:26:05;8.55;;;2.50;;
11675;SDS011;5894;42.768;23.404;2023-09-12T08:28:32;7.88;;;2.33;;
11675;SDS011;5894;42.768;23.404;2023-09-12T08:30:59;8.32;;;2.30;;
11675;SDS011;5894;42.768;23.404;2023-09-12T08:33:26;16.17;;;3.03;;
11675;SDS011;5894;42.768;23.404;2023-09-12T08:35:53;10.23;;;3.05;;
11675;SDS011;5894;42.768;23.404;2023-09-12T08:38:22;12.25;;;2.70;;
11675;SDS011;5894;42.768;23.404;2023-09-12T08:40:49;11.05;;;2.25;;
11675;SDS011;5894;42.768;23.404;2023-09-12T08:43:16;9.82;;;2.45;;
11675;SDS011;5894;42.768;23.404;2023-09-12T08:45:44;8.20;;;2.20;;
11675;SDS011;5894;42.768;23.404;2023-09-12T08:48:12;8.85;;;2.55;;
11675;SDS011;5894;42.768;23.404;2023-09-12T08:50:41;8.02;;;2.50;;
11675;SDS011;5894;42.768;23.404;2023-09-12T08:53:09;8.32;;;2.15;;
11675;SDS011;5894;42.768;23.404;2023-09-12T08:55:38;6.47;;;2.25;;
11675;SDS011;5894;42.768;23.404;2023-09-12T09:17:29;5.97;;;2.42;;
11675;SDS011;5894;42.768;23.404;2023-09-12T09:19:56;3.92;;;2.28;;
11675;SDS011;5894;42.768;23.404;2023-09-12T09:22:24;5.78;;;2.08;;
11675;SDS011;5894;42.768;23.404;2023-09-12T09:24:54;3.00;;;2.08;;
11675;SDS011;5894;42.768;23.404;2023-09-12T09:27:37;4.13;;;1.50;;
11675;SDS011;5894;42.768;23.404;2023-09-12T09:30:05;6.53;;;1.63;;
11675;SDS011;5894;42.768;23.404;2023-09-12T09:32:34;5.47;;;1.90;;
11675;SDS011;5894;42.768;23.404;2023-09-12T09:35:01;4.28;;;1.88;;
11675;SDS011;5894;42.768;23.404;2023-09-12T09:37:30;5.53;;;1.80;;
11675;SDS011;5894;42.768;23.404;2023-09-12T09:39:57;2.88;;;1.80;;
11675;SDS011;5894;42.768;23.404;2023-09-12T09:42:25;2.42;;;1.90;;
11675;SDS011;5894;42.768;23.404;2023-09-12T09:44:55;4.85;;;2.03;;
11675;SDS011;5894;42.768;23.404;2023-09-12T09:47:22;4.28;;;2.13;;
11675;SDS011;5894;42.768;23.404;2023-09-12T09:49:52;4.97;;;2.20;;
11675;SDS011;5894;42.768;23.404;2023-09-12T09:52:25;7.65;;;2.63;;
11675;SDS011;5894;42.768;23.404;2023-09-12T09:54:52;11.85;;;2.60;;
11675;SDS011;5894;42.768;23.404;2023-09-12T09:57:19;6.22;;;2.00;;
11675;SDS011;5894;42.768;23.404;2023-09-12T09:59:48;7.25;;;2.10;;
11675;SDS011;5894;42.768;23.404;2023-09-12T10:02:18;7.20;;;3.05;;
11675;SDS011;5894;42.768;23.404;2023-09-12T10:04:48;7.88;;;3.67;;
11675;SDS011;5894;42.768;23.404;2023-09-12T10:07:21;9.38;;;3.33;;
11675;SDS011;5894;42.768;23.404;2023-09-12T10:09:48;9.57;;;2.92;;
11675;SDS011;5894;42.768;23.404;2023-09-12T10:12:16;6.15;;;2.58;;
11675;SDS011;5894;42.768;23.404;2023-09-12T10:14:43;5.22;;;2.38;;
11675;SDS011;5894;42.768;23.404;2023-09-12T10:17:12;5.43;;;2.45;;
11675;SDS011;5894;42.768;23.404;2023-09-12T10:19:42;7.82;;;2.20;;
11675;SDS011;5894;42.768;23.404;2023-09-12T10:22:18;10.23;;;2.60;;
11675;SDS011;5894;42.768;23.404;2023-09-12T10:24:52;5.93;;;2.45;;
11675;SDS011;5894;42.768;23.404;2023-09-12T10:27:20;6.88;;;2.47;;
11675;SDS011;5894;42.768;23.404;2023-09-12T10:29:49;11.30;;;2.50;;
11675;SDS011;5894;42.768;23.404;2023-09-12T10:32:18;4.90;;;2.88;;
11675;SDS011;5894;42.768;23.404;2023-09-12T10:34:46;15.88;;;2.88;;
11675;SDS011;5894;42.768;23.404;2023-09-12T10:37:15;8.02;;;2.45;;
11675;SDS011;5894;42.768;23.404;2023-09-12T10:39:44;8.00;;;2.30;;
11675;SDS011;5894;42.768;23.404;2023-09-12T10:42:12;5.43;;;2.58;;
11675;SDS011;5894;42.768;23.404;2023-09-12T10:44:40;5.15;;;2.40;;
11675;SDS011;5894;42.768;23.404;2023-09-12T10:47:07;8.68;;;2.85;;
11675;SDS011;5894;42.768;23.404;2023-09-12T10:49:35;7.32;;;2.60;;
11675;SDS011;5894;42.768;23.404;2023-09-12T10:52:03;6.30;;;2.30;;
11675;SDS011;5894;42.768;23.404;2023-09-12T10:54:37;3.53;;;2.40;;
11675;SDS011;5894;42.768;23.404;2023-09-12T10:57:07;5.53;;;2.20;;
11675;SDS011;5894;42.768;23.404;2023-09-12T10:59:36;7.45;;;2.80;;
11675;SDS011;5894;42.768;23.404;2023-09-12T11:02:26;16.50;;;3.40;;
11675;SDS011;5894;42.768;23.404;2023-09-12T11:04:55;6.30;;;2.47;;
11675;SDS011;5894;42.768;23.404;2023-09-12T11:10:17;5.57;;;2.40;;
11675;SDS011;5894;42.768;23.404;2023-09-12T11:12:48;8.13;;;2.60;;
11675;SDS011;5894;42.768;23.404;2023-09-12T11:15:16;7.07;;;2.80;;
11675;SDS011;5894;42.768;23.404;2023-09-12T11:17:44;4.18;;;2.55;;
11675;SDS011;5894;42.768;23.404;2023-09-12T11:20:12;8.32;;;2.85;;
11675;SDS011;5894;42.768;23.404;2023-09-12T11:22:41;7.57;;;2.45;;
11675;SDS011;5894;42.768;23.404;2023-09-12T11:25:21;6.38;;;2.45;;
11675;SDS011;5894;42.768;23.404;2023-09-12T11:28:03;5.32;;;2.67;;
11675;SDS011;5894;42.768;23.404;2023-09-12T11:30:31;4.72;;;2.67;;
11675;SDS011;5894;42.768;23.404;2023-09-12T11:33:02;3.97;;;2.20;;
11675;SDS011;5894;42.768;23.404;2023-09-12T11:35:35;6.15;;;2.47;;
11675;SDS011;5894;42.768;23.404;2023-09-12T11:38:09;5.55;;;2.10;;
11675;SDS011;5894;42.768;23.404;2023-09-12T11:40:43;4.55;;;2.40;;
11675;SDS011;5894;42.768;23.404;2023-09-12T11:43:20;5.38;;;2.50;;
11675;SDS011;5894;42.768;23.404;2023-09-12T11:45:49;4.38;;;2.20;;
11675;SDS011;5894;42.768;23.404;2023-09-12T11:48:17;9.38;;;4.95;;
11675;SDS011;5894;42.768;23.404;2023-09-12T11:50:49;4.85;;;2.47;;
11675;SDS011;5894;42.768;23.404;2023-09-12T11:53:18;4.25;;;2.20;;
11675;SDS011;5894;42.768;23.404;2023-09-12T11:55:47;4.70;;;2.28;;
11675;SDS011;5894;42.768;23.404;2023-09-12T11:58:17;4.60;;;2.03;;
11675;SDS011;5894;42.768;23.404;2023-09-12T12:00:47;3.50;;;2.13;;
11675;SDS011;5894;42.768;23.404;2023-09-12T12:03:16;4.28;;;2.30;;
11675;SDS011;5894;42.768;23.404;2023-09-12T12:05:44;4.35;;;2.00;;
11675;SDS011;5894;42.768;23.404;2023-09-12T12:08:11;6.28;;;2.20;;
11675;SDS011;5894;42.768;23.404;2023-09-12T12:10:39;4.38;;;2.30;;
11675;SDS011;5894;42.768;23.404;2023-09-12T12:13:09;7.15;;;2.33;;
11675;SDS011;5894;42.768;23.404;2023-09-12T12:15:38;5.80;;;2.47;;
11675;SDS011;5894;42.768;23.404;2023-09-12T12:18:08;5.85;;;2.40;;
11675;SDS011;5894;42.768;23.404;2023-09-12T12:20:35;5.15;;;2.45;;
11675;SDS011;5894;42.768;23.404;2023-09-12T12:23:02;4.82;;;2.40;;
11675;SDS011;5894;42.768;23.404;2023-09-12T12:25:31;3.72;;;2.40;;
11675;SDS011;5894;42.768;23.404;2023-09-12T12:27:59;3.70;;;2.28;;
11675;SDS011;5894;42.768;23.404;2023-09-12T12:30:29;5.47;;;2.20;;
11675;SDS011;5894;42.768;23.404;2023-09-12T12:32:57;5.43;;;2.47;;
11675;SDS011;5894;42.768;23.404;2023-09-12T12:35:25;2.70;;;2.10;;
11675;SDS011;5894;42.768;23.404;2023-09-12T12:37:54;7.20;;;2.17;;
11675;SDS011;5894;42.768;23.404;2023-09-12T12:40:22;4.95;;;1.90;;
11675;SDS011;5894;42.768;23.404;2023-09-12T12:42:49;9.40;;;2.30;;
11675;SDS011;5894;42.768;23.404;2023-09-12T12:45:16;4.97;;;2.20;;
11675;SDS011;5894;42.768;23.404;2023-09-12T12:47:45;5.95;;;2.47;;
11675;SDS011;5894;42.768;23.404;2023-09-12T12:50:13;5.45;;;2.42;;
11675;SDS011;5894;42.768;23.404;2023-09-12T12:52:41;6.22;;;2.50;;
11675;SDS011;5894;42.768;23.404;2023-09-12T12:55:09;6.97;;;2.35;;
11675;SDS011;5894;42.768;23.404;2023-09-12T12:57:37;6.65;;;2.80;;
11675;SDS011;5894;42.768;23.404;2023-09-12T13:00:09;4.15;;;2.25;;
11675;SDS011;5894;42.768;23.404;2023-09-12T13:02:37;5.68;;;2.33;;
11675;SDS011;5894;42.768;23.404;2023-09-12T13:05:06;6.00;;;2.20;;
11675;SDS011;5894;42.768;23.404;2023-09-12T13:07:46;8.25;;;2.35;;
11675;SDS011;5894;42.768;23.404;2023-09-12T13:10:13;7.88;;;2.38;;
11675;SDS011;5894;42.768;23.404;2023-09-12T13:12:40;5.38;;;2.40;;
11675;SDS011;5894;42.768;23.404;2023-09-12T13:15:11;3.55;;;2.08;;
11675;SDS011;5894;42.768;23.404;2023-09-12T13:17:38;3.13;;;2.20;;
11675;SDS011;5894;42.768;23.404;2023-09-12T13:20:06;4.90;;;2.50;;
11675;SDS011;5894;42.768;23.404;2023-09-12T13:22:34;4.75;;;2.25;;
11675;SDS011;5894;42.768;23.404;2023-09-12T13:25:02;4.47;;;2.50;;
11675;SDS011;5894;42.768;23.404;2023-09-12T13:27:29;7.60;;;2.80;;
11675;SDS011;5894;42.768;23.404;2023-09-12T13:29:56;7.38;;;2.28;;
11675;SDS011;5894;42.768;23.404;2023-09-12T13:32:23;4.90;;;2.13;;
11675;SDS011;5894;42.768;23.404;2023-09-12T13:34:50;4.82;;;2.30;;
11675;SDS011;5894;42.768;23.404;2023-09-12T13:37:19;4.97;;;2.25;;
11675;SDS011;5894;42.768;23.404;2023-09-12T13:39:46;4.43;;;2.20;;
11675;SDS011;5894;42.768;23.404;2023-09-12T13:42:16;12.57;;;2.50;;
11675;SDS011;5894;42.768;23.404;2023-09-12T13:44:45;6.40;;;2.28;;
11675;SDS011;5894;42.768;23.404;2023-09-12T13:47:13;6.20;;;2.30;;
11675;SDS011;5894;42.768;23.404;2023-09-12T13:49:46;3.50;;;2.13;;
11675;SDS011;5894;42.768;23.404;2023-09-12T13:52:13;4.25;;;1.80;;
11675;SDS011;5894;42.768;23.404;2023-09-12T13:54:41;7.05;;;2.20;;
11675;SDS011;5894;42.768;23.404;2023-09-12T13:57:07;4.05;;;2.20;;
11675;SDS011;5894;42.768;23.404;2023-09-12T13:59:36;8.68;;;2.20;;
11675;SDS011;5894;42.768;23.404;2023-09-12T14:02:03;4.55;;;2.20;;
11675;SDS011;5894;42.768;23.404;2023-09-12T14:04:30;4.90;;;2.30;;
11675;SDS011;5894;42.768;23.404;2023-09-12T14:06:57;3.90;;;2.40;;
11675;SDS011;5894;42.768;23.404;2023-09-12T14:09:24;8.07;;;2.55;;
11675;SDS011;5894;42.768;23.404;2023-09-12T14:11:51;4.15;;;2.03;;
11675;SDS011;5894;42.768;23.404;2023-09-12T14:14:18;5.15;;;2.20;;
11675;SDS011;5894;42.768;23.404;2023-09-12T14:16:47;5.25;;;2.30;;
11675;SDS011;5894;42.768;23.404;2023-09-12T14:19:14;4.90;;;2.28;;
11675;SDS011;5894;42.768;23.404;2023-09-12T14:21:41;7.18;;;2.55;;
11675;SDS011;5894;42.768;23.404;2023-09-12T14:24:09;6.75;;;2.55;;
11675;SDS011;5894;42.768;23.404;2023-09-12T14:26:36;4.57;;;1.90;;
11675;SDS011;5894;42.768;23.404;2023-09-12T14:29:03;3.30;;;2.15;;
11675;SDS011;5894;42.768;23.404;2023-09-12T14:31:31;5.15;;;2.35;;
11675;SDS011;5894;42.768;23.404;2023-09-12T14:33:59;6.43;;;2.10;;
11675;SDS011;5894;42.768;23.404;2023-09-12T14:36:26;4.93;;;2.30;;
11675;SDS011;5894;42.768;23.404;2023-09-12T14:38:53;3.97;;;2.08;;
11675;SDS011;5894;42.768;23.404;2023-09-12T14:41:20;4.68;;;2.15;;
11675;SDS011;5894;42.768;23.404;2023-09-12T14:43:47;5.35;;;2.20;;
11675;SDS011;5894;42.768;23.404;2023-09-12T14:46:14;3.50;;;2.10;;
11675;SDS011;5894;42.768;23.404;2023-09-12T14:48:41;6.75;;;2.00;;
11675;SDS011;5894;42.768;23.404;2023-09-12T14:51:11;4.20;;;2.10;;
11675;SDS011;5894;42.768;23.404;2023-09-12T14:53:38;4.93;;;2.10;;
11675;SDS011;5894;42.768;23.404;2023-09-12T14:56:09;4.63;;;2.20;;
11675;SDS011;5894;42.768;23.404;2023-09-12T14:58:36;5.38;;;2.10;;
11675;SDS011;5894;42.768;23.404;2023-09-12T15:01:03;4.88;;;2.30;;
11675;SDS011;5894;42.768;23.404;2023-09-12T15:03:32;4.53;;;2.35;;
11675;SDS011;5894;42.768;23.404;2023-09-12T15:06:04;3.58;;;2.25;;
11675;SDS011;5894;42.768;23.404;2023-09-12T15:08:33;3.58;;;1.98;;
11675;SDS011;5894;42.768;23.404;2023-09-12T15:11:01;3.90;;;2.30;;
11675;SDS011;5894;42.768;23.404;2023-09-12T15:13:29;5.32;;;2.47;;
11675;SDS011;5894;42.768;23.404;2023-09-12T15:15:56;4.22;;;2.30;;
11675;SDS011;5894;42.768;23.404;2023-09-12T15:18:23;2.75;;;2.30;;